PWSweather.com
Personal Weather Stations
Station Observations
KCOGRAND2
Redlands, Southcamp Road & Dakota Circle, Grand Junction, CO 81507

Redlands, Southcamp Road & Dakota CircleGrand Junction, CO 81507

Lat: 39.055, Lon: -108.637

Elevation: 4870

Station Type: RadioShack WX200

High Low Average
Temperature 34.9°F1.6°C 25.7°F-3.5°C 29.0°F-1.7°C
Dew Point 25.0°F-3.9°C 1.8°F-16.8°C 17.9°F-7.8°C
Winds 17.0 mph 27.4 kmh Calm Calm 5.0 mph W8.0 kmh W
Wind Gusts 25.3 mph40.7 kmh -- 8.0 mph12.9 kmh
Humidity 94% 24% 67%
Pressure 25.13 in851.0 mb 24.83 in840.8 mb -
Precipitation 0.00 in0.0 mm - -
Hour Temp Dew Point Humidity Winds Wind Gusts Pressure Precip Precip Rate Daily Precip Total
12:00 AM 27.7°F-2.4°C 19.9°F-6.7°C 72% 3.0 mph E4.8 kmh E 7.8 mph12.6 kmh 24.86 in841.9 mb 0.00 in0.0 mm 0.00 in/hr0.0 mm/hr 0.00 in0.0 mm
12:05 AM 27.5°F-2.5°C 19.9°F-6.7°C 73% 2.0 mph NNE3.2 kmh NNE 3.6 mph5.8 kmh 24.86 in841.9 mb 0.00 in0.0 mm 0.00 in/hr0.0 mm/hr 0.00 in0.0 mm
12:10 AM 27.1°F-2.7°C 20.3°F-6.5°C 75% Calm Calm 2.7 mph4.3 kmh 24.86 in841.9 mb 0.00 in0.0 mm 0.00 in/hr0.0 mm/hr 0.00 in0.0 mm
12:15 AM 27.0°F-2.8°C 20.1°F-6.6°C 75% 1.0 mph N1.6 kmh N 6.3 mph10.1 kmh 24.86 in841.9 mb 0.00 in0.0 mm 0.00 in/hr0.0 mm/hr 0.00 in0.0 mm
12:20 AM 26.8°F-2.9°C 20.3°F-6.5°C 76% 2.0 mph SW3.2 kmh SW 5.4 mph8.7 kmh 24.86 in841.9 mb 0.00 in0.0 mm 0.00 in/hr0.0 mm/hr 0.00 in0.0 mm
12:26 AM 26.6°F-3.0°C 20.1°F-6.6°C 76% 1.0 mph SW1.6 kmh SW 2.7 mph4.3 kmh 24.86 in841.9 mb 0.00 in0.0 mm 0.00 in/hr0.0 mm/hr 0.00 in0.0 mm
12:31 AM 26.6°F-3.0°C 20.3°F-6.5°C 77% Calm Calm 3.1 mph5.0 kmh 24.86 in841.9 mb 0.00 in0.0 mm 0.00 in/hr0.0 mm/hr 0.00 in0.0 mm
12:36 AM 26.4°F-3.1°C 20.1°F-6.6°C 77% Calm Calm 3.1 mph5.0 kmh 24.86 in841.9 mb 0.00 in0.0 mm 0.00 in/hr0.0 mm/hr 0.00 in0.0 mm
12:41 AM 26.2°F-3.2°C 20.3°F-6.5°C 78% Calm Calm -- 24.86 in841.9 mb 0.00 in0.0 mm 0.00 in/hr0.0 mm/hr 0.00 in0.0 mm
12:46 AM 26.2°F-3.2°C 20.3°F-6.5°C 78% Calm Calm -- 24.86 in841.9 mb 0.00 in0.0 mm 0.00 in/hr0.0 mm/hr 0.00 in0.0 mm
12:51 AM 26.6°F-3.0°C 20.7°F-6.3°C 78% 1.0 mph S1.6 kmh S 4.5 mph7.2 kmh 24.86 in841.9 mb 0.00 in0.0 mm 0.00 in/hr0.0 mm/hr 0.00 in0.0 mm
12:56 AM 27.1°F-2.7°C 20.8°F-6.2°C 77% 3.0 mph SE4.8 kmh SE 5.4 mph8.7 kmh 24.86 in841.9 mb 0.00 in0.0 mm 0.00 in/hr0.0 mm/hr 0.00 in0.0 mm
01:01 AM 27.3°F-2.6°C 20.8°F-6.2°C 76% 4.0 mph E6.4 kmh E 4.5 mph7.2 kmh 24.86 in841.9 mb 0.00 in0.0 mm 0.00 in/hr0.0 mm/hr 0.00 in0.0 mm
01:06 AM 27.5°F-2.5°C 20.3°F-6.5°C 74% 4.0 mph E6.4 kmh E 6.9 mph11.1 kmh 24.86 in841.9 mb 0.00 in0.0 mm 0.00 in/hr0.0 mm/hr 0.00 in0.0 mm
01:11 AM 27.7°F-2.4°C 19.9°F-6.7°C 72% 4.0 mph E6.4 kmh E 6.7 mph10.8 kmh 24.83 in840.8 mb 0.00 in0.0 mm 0.00 in/hr0.0 mm/hr 0.00 in0.0 mm
01:16 AM 27.7°F-2.4°C 19.9°F-6.7°C 72% 4.0 mph E6.4 kmh E 6.3 mph10.1 kmh 24.83 in840.8 mb 0.00 in0.0 mm 0.00 in/hr0.0 mm/hr 0.00 in0.0 mm
01:21 AM 27.1°F-2.7°C 19.6°F-6.9°C 73% 3.0 mph E4.8 kmh E 4.9 mph7.9 kmh 24.83 in840.8 mb 0.00 in0.0 mm 0.00 in/hr0.0 mm/hr 0.00 in0.0 mm
01:26 AM 27.1°F-2.7°C 19.9°F-6.7°C 74% 3.0 mph SE4.8 kmh SE 4.9 mph7.9 kmh 24.83 in840.8 mb 0.00 in0.0 mm 0.00 in/hr0.0 mm/hr 0.00 in0.0 mm
01:31 AM 27.3°F-2.6°C 20.8°F-6.2°C 76% 3.0 mph SE4.8 kmh SE 6.9 mph11.1 kmh 24.83 in840.8 mb 0.00 in0.0 mm 0.00 in/hr0.0 mm/hr 0.00 in0.0 mm
01:36 AM 27.1°F-2.7°C 20.8°F-6.2°C 77% 3.0 mph SE4.8 kmh SE 4.9 mph7.9 kmh 24.83 in840.8 mb 0.00 in0.0 mm 0.00 in/hr0.0 mm/hr 0.00 in0.0 mm
01:41 AM 27.0°F-2.8°C 20.7°F-6.3°C 77% 3.0 mph SSE4.8 kmh SSE 4.0 mph6.4 kmh 24.86 in841.9 mb 0.00 in0.0 mm 0.00 in/hr0.0 mm/hr 0.00 in0.0 mm
01:46 AM 27.0°F-2.8°C 20.7°F-6.3°C 77% 2.0 mph SSE3.2 kmh SSE 4.0 mph6.4 kmh 24.86 in841.9 mb 0.00 in0.0 mm 0.00 in/hr0.0 mm/hr 0.00 in0.0 mm
01:51 AM 26.8°F-2.9°C 20.8°F-6.2°C 78% 1.0 mph SSE1.6 kmh SSE 3.1 mph5.0 kmh 24.86 in841.9 mb 0.00 in0.0 mm 0.00 in/hr0.0 mm/hr 0.00 in0.0 mm
01:56 AM 26.8°F-2.9°C 20.8°F-6.2°C 78% Calm Calm -- 24.86 in841.9 mb 0.00 in0.0 mm 0.00 in/hr0.0 mm/hr 0.00 in0.0 mm
02:01 AM 27.0°F-2.8°C 21.0°F-6.1°C 78% Calm Calm 2.7 mph4.3 kmh 24.86 in841.9 mb 0.00 in0.0 mm 0.00 in/hr0.0 mm/hr 0.00 in0.0 mm
02:06 AM 27.1°F-2.7°C 21.2°F-6.0°C 78% Calm Calm -- 24.86 in841.9 mb 0.00 in0.0 mm 0.00 in/hr0.0 mm/hr 0.00 in0.0 mm
02:11 AM 27.1°F-2.7°C 21.2°F-6.0°C 78% Calm Calm -- 24.83 in840.8 mb 0.00 in0.0 mm 0.00 in/hr0.0 mm/hr 0.00 in0.0 mm
02:16 AM 27.1°F-2.7°C 21.2°F-6.0°C 78% Calm Calm -- 24.83 in840.8 mb 0.00 in0.0 mm 0.00 in/hr0.0 mm/hr 0.00 in0.0 mm
02:21 AM 27.1°F-2.7°C 21.2°F-6.0°C 78% Calm Calm -- 24.83 in840.8 mb 0.00 in0.0 mm 0.00 in/hr0.0 mm/hr 0.00 in0.0 mm
02:26 AM 27.3°F-2.6°C 21.4°F-5.9°C 78% Calm Calm -- 24.83 in840.8 mb 0.00 in0.0 mm 0.00 in/hr0.0 mm/hr 0.00 in0.0 mm
02:31 AM 27.3°F-2.6°C 21.4°F-5.9°C 78% Calm Calm -- 24.83 in840.8 mb 0.00 in0.0 mm 0.00 in/hr0.0 mm/hr 0.00 in0.0 mm
02:36 AM 27.1°F-2.7°C 21.2°F-6.0°C 78% Calm Calm 2.7 mph4.3 kmh 24.83 in840.8 mb 0.00 in0.0 mm 0.00 in/hr0.0 mm/hr 0.00 in0.0 mm
02:41 AM 27.1°F-2.7°C 21.2°F-6.0°C 78% Calm Calm -- 24.83 in840.8 mb 0.00 in0.0 mm 0.00 in/hr0.0 mm/hr 0.00 in0.0 mm
02:46 AM 27.1°F-2.7°C 21.2°F-6.0°C 78% 1.0 mph S1.6 kmh S 5.4 mph8.7 kmh 24.83 in840.8 mb 0.00 in0.0 mm 0.00 in/hr0.0 mm/hr 0.00 in0.0 mm
02:51 AM 27.0°F-2.8°C 21.4°F-5.9°C 79% 3.0 mph WSW4.8 kmh WSW 5.4 mph8.7 kmh 24.83 in840.8 mb 0.00 in0.0 mm 0.00 in/hr0.0 mm/hr 0.00 in0.0 mm
02:56 AM 27.0°F-2.8°C 21.6°F-5.8°C 80% 2.0 mph W3.2 kmh W 3.6 mph5.8 kmh 24.83 in840.8 mb 0.00 in0.0 mm 0.00 in/hr0.0 mm/hr 0.00 in0.0 mm
03:01 AM 27.0°F-2.8°C 21.6°F-5.8°C 80% Calm Calm -- 24.83 in840.8 mb 0.00 in0.0 mm 0.00 in/hr0.0 mm/hr 0.00 in0.0 mm
03:06 AM 26.8°F-2.9°C 21.4°F-5.9°C 80% Calm Calm 3.1 mph5.0 kmh 24.83 in840.8 mb 0.00 in0.0 mm 0.00 in/hr0.0 mm/hr 0.00 in0.0 mm
03:11 AM 26.6°F-3.0°C 21.2°F-6.0°C 80% 1.0 mph W1.6 kmh W 3.1 mph5.0 kmh 24.83 in840.8 mb 0.00 in0.0 mm 0.00 in/hr0.0 mm/hr 0.00 in0.0 mm
03:16 AM 26.4°F-3.1°C 21.0°F-6.1°C 80% 2.0 mph W3.2 kmh W 3.6 mph5.8 kmh 24.83 in840.8 mb 0.00 in0.0 mm 0.00 in/hr0.0 mm/hr 0.00 in0.0 mm
03:21 AM 26.4°F-3.1°C 21.4°F-5.9°C 81% Calm Calm 2.7 mph4.3 kmh 24.83 in840.8 mb 0.00 in0.0 mm 0.00 in/hr0.0 mm/hr 0.00 in0.0 mm
03:26 AM 26.2°F-3.2°C 21.2°F-6.0°C 81% Calm Calm -- 24.86 in841.9 mb 0.00 in0.0 mm 0.00 in/hr0.0 mm/hr 0.00 in0.0 mm
03:31 AM 26.4°F-3.1°C 21.4°F-5.9°C 81% Calm Calm 2.7 mph4.3 kmh 24.86 in841.9 mb 0.00 in0.0 mm 0.00 in/hr0.0 mm/hr 0.00 in0.0 mm
03:36 AM 26.8°F-2.9°C 22.1°F-5.5°C 82% 1.0 mph WNW1.6 kmh WNW 4.0 mph6.4 kmh 24.86 in841.9 mb 0.00 in0.0 mm 0.00 in/hr0.0 mm/hr 0.00 in0.0 mm
03:41 AM 27.0°F-2.8°C 21.9°F-5.6°C 81% 3.0 mph NW4.8 kmh NW 4.0 mph6.4 kmh 24.86 in841.9 mb 0.00 in0.0 mm 0.00 in/hr0.0 mm/hr 0.00 in0.0 mm
03:46 AM 26.8°F-2.9°C 21.7°F-5.7°C 81% 2.0 mph NNW3.2 kmh NNW 3.6 mph5.8 kmh 24.86 in841.9 mb 0.00 in0.0 mm 0.00 in/hr0.0 mm/hr 0.00 in0.0 mm
03:51 AM 26.8°F-2.9°C 22.1°F-5.5°C 82% 1.0 mph NNW1.6 kmh NNW 2.7 mph4.3 kmh 24.86 in841.9 mb 0.00 in0.0 mm 0.00 in/hr0.0 mm/hr 0.00 in0.0 mm
03:56 AM 26.6°F-3.0°C 21.9°F-5.6°C 82% Calm Calm 3.6 mph5.8 kmh 24.86 in841.9 mb 0.00 in0.0 mm 0.00 in/hr0.0 mm/hr 0.00 in0.0 mm
04:01 AM 26.8°F-2.9°C 22.1°F-5.5°C 82% 1.0 mph NNW1.6 kmh NNW 3.6 mph5.8 kmh 24.86 in841.9 mb 0.00 in0.0 mm 0.00 in/hr0.0 mm/hr 0.00 in0.0 mm
04:06 AM 26.8°F-2.9°C 22.3°F-5.4°C 83% 1.0 mph NNW1.6 kmh NNW 3.6 mph5.8 kmh 24.86 in841.9 mb 0.00 in0.0 mm 0.00 in/hr0.0 mm/hr 0.00 in0.0 mm
04:11 AM 26.8°F-2.9°C 22.3°F-5.4°C 83% 1.0 mph NNW1.6 kmh NNW 3.6 mph5.8 kmh 24.86 in841.9 mb 0.00 in0.0 mm 0.00 in/hr0.0 mm/hr 0.00 in0.0 mm
04:16 AM 26.8°F-2.9°C 22.6°F-5.2°C 84% 2.0 mph NW3.2 kmh NW 4.9 mph7.9 kmh 24.86 in841.9 mb 0.00 in0.0 mm 0.00 in/hr0.0 mm/hr 0.00 in0.0 mm
04:21 AM 26.6°F-3.0°C 22.6°F-5.2°C 85% 4.0 mph NW6.4 kmh NW 4.9 mph7.9 kmh 24.86 in841.9 mb 0.00 in0.0 mm 0.00 in/hr0.0 mm/hr 0.00 in0.0 mm
04:26 AM 26.6°F-3.0°C 23.0°F-5.0°C 86% 2.0 mph WNW3.2 kmh WNW 3.6 mph5.8 kmh 24.86 in841.9 mb 0.00 in0.0 mm 0.00 in/hr0.0 mm/hr 0.00 in0.0 mm
04:31 AM 26.6°F-3.0°C 23.0°F-5.0°C 86% Calm Calm -- 24.86 in841.9 mb 0.00 in0.0 mm 0.00 in/hr0.0 mm/hr 0.00 in0.0 mm
04:36 AM 26.6°F-3.0°C 23.0°F-5.0°C 86% Calm Calm -- 24.86 in841.9 mb 0.00 in0.0 mm 0.00 in/hr0.0 mm/hr 0.00 in0.0 mm
04:41 AM 26.6°F-3.0°C 23.0°F-5.0°C 86% Calm Calm -- 24.86 in841.9 mb 0.00 in0.0 mm 0.00 in/hr0.0 mm/hr 0.00 in0.0 mm
04:46 AM 26.6°F-3.0°C 23.0°F-5.0°C 86% Calm Calm -- 24.86 in841.9 mb 0.00 in0.0 mm 0.00 in/hr0.0 mm/hr 0.00 in0.0 mm
04:51 AM 26.6°F-3.0°C 23.0°F-5.0°C 86% Calm Calm -- 24.86 in841.9 mb 0.00 in0.0 mm 0.00 in/hr0.0 mm/hr 0.00 in0.0 mm
04:56 AM 26.8°F-2.9°C 23.4°F-4.8°C 87% Calm Calm -- 24.86 in841.9 mb 0.00 in0.0 mm 0.00 in/hr0.0 mm/hr 0.00 in0.0 mm
05:01 AM 26.8°F-2.9°C 23.4°F-4.8°C 87% Calm Calm -- 24.86 in841.9 mb 0.00 in0.0 mm 0.00 in/hr0.0 mm/hr 0.00 in0.0 mm
05:06 AM 26.8°F-2.9°C 23.7°F-4.6°C 88% Calm Calm 3.6 mph5.8 kmh 24.86 in841.9 mb 0.00 in0.0 mm 0.00 in/hr0.0 mm/hr 0.00 in0.0 mm
05:12 AM 26.8°F-2.9°C 23.7°F-4.6°C 88% 1.0 mph WNW1.6 kmh WNW 3.6 mph5.8 kmh 24.86 in841.9 mb 0.00 in0.0 mm 0.00 in/hr0.0 mm/hr 0.00 in0.0 mm
05:17 AM 26.6°F-3.0°C 23.7°F-4.6°C 89% 2.0 mph NW3.2 kmh NW 4.5 mph7.2 kmh 24.86 in841.9 mb 0.00 in0.0 mm 0.00 in/hr0.0 mm/hr 0.00 in0.0 mm
05:22 AM 26.4°F-3.1°C 23.9°F-4.5°C 90% 3.0 mph NNW4.8 kmh NNW 4.0 mph6.4 kmh 24.89 in842.9 mb 0.00 in0.0 mm 0.00 in/hr0.0 mm/hr 0.00 in0.0 mm
05:27 AM 26.4°F-3.1°C 24.1°F-4.4°C 91% 2.0 mph N3.2 kmh N 3.1 mph5.0 kmh 24.89 in842.9 mb 0.00 in0.0 mm 0.00 in/hr0.0 mm/hr 0.00 in0.0 mm
05:32 AM 26.2°F-3.2°C 23.9°F-4.5°C 91% 2.0 mph N3.2 kmh N 3.6 mph5.8 kmh 24.89 in842.9 mb 0.00 in0.0 mm 0.00 in/hr0.0 mm/hr 0.00 in0.0 mm
05:37 AM 26.2°F-3.2°C 23.9°F-4.5°C 91% 2.0 mph N3.2 kmh N 3.6 mph5.8 kmh 24.89 in842.9 mb 0.00 in0.0 mm 0.00 in/hr0.0 mm/hr 0.00 in0.0 mm
05:42 AM 26.2°F-3.2°C 23.9°F-4.5°C 91% 2.0 mph N3.2 kmh N 3.1 mph5.0 kmh 24.89 in842.9 mb 0.00 in0.0 mm 0.00 in/hr0.0 mm/hr 0.00 in0.0 mm
05:47 AM 26.2°F-3.2°C 23.9°F-4.5°C 91% 1.0 mph N1.6 kmh N 3.6 mph5.8 kmh 24.89 in842.9 mb 0.00 in0.0 mm 0.00 in/hr0.0 mm/hr 0.00 in0.0 mm
05:52 AM 26.2°F-3.2°C 23.9°F-4.5°C 91% 2.0 mph N3.2 kmh N 3.6 mph5.8 kmh 24.89 in842.9 mb 0.00 in0.0 mm 0.00 in/hr0.0 mm/hr 0.00 in0.0 mm
05:57 AM 26.2°F-3.2°C 23.9°F-4.5°C 91% 2.0 mph N3.2 kmh N 3.6 mph5.8 kmh 24.89 in842.9 mb 0.00 in0.0 mm 0.00 in/hr0.0 mm/hr 0.00 in0.0 mm
06:02 AM 26.2°F-3.2°C 24.3°F-4.3°C 92% 2.0 mph N3.2 kmh N 3.6 mph5.8 kmh 24.89 in842.9 mb 0.00 in0.0 mm 0.00 in/hr0.0 mm/hr 0.00 in0.0 mm
06:07 AM 26.1°F-3.3°C 24.1°F-4.4°C 92% 3.0 mph N4.8 kmh N 4.5 mph7.2 kmh 24.92 in843.9 mb 0.00 in0.0 mm 0.00 in/hr0.0 mm/hr 0.00 in0.0 mm
06:12 AM 26.1°F-3.3°C 23.7°F-4.6°C 91% 3.0 mph N4.8 kmh N 3.6 mph5.8 kmh 24.92 in843.9 mb 0.00 in0.0 mm 0.00 in/hr0.0 mm/hr 0.00 in0.0 mm
06:17 AM 26.1°F-3.3°C 23.7°F-4.6°C 91% 2.0 mph N3.2 kmh N 3.6 mph5.8 kmh 24.92 in843.9 mb 0.00 in0.0 mm 0.00 in/hr0.0 mm/hr 0.00 in0.0 mm
06:22 AM 25.9°F-3.4°C 23.5°F-4.7°C 91% 2.0 mph N3.2 kmh N 4.0 mph6.4 kmh 24.92 in843.9 mb 0.00 in0.0 mm 0.00 in/hr0.0 mm/hr 0.00 in0.0 mm
06:27 AM 26.1°F-3.3°C 23.7°F-4.6°C 91% 3.0 mph N4.8 kmh N 4.9 mph7.9 kmh 24.92 in843.9 mb 0.00 in0.0 mm 0.00 in/hr0.0 mm/hr 0.00 in0.0 mm
06:32 AM 26.1°F-3.3°C 23.7°F-4.6°C 91% 4.0 mph N6.4 kmh N 5.4 mph8.7 kmh 24.92 in843.9 mb 0.00 in0.0 mm 0.00 in/hr0.0 mm/hr 0.00 in0.0 mm
06:37 AM 26.2°F-3.2°C 24.3°F-4.3°C 92% 4.0 mph N6.4 kmh N 6.7 mph10.8 kmh 24.92 in843.9 mb 0.00 in0.0 mm 0.00 in/hr0.0 mm/hr 0.00 in0.0 mm
06:42 AM 26.2°F-3.2°C 24.3°F-4.3°C 92% 4.0 mph N6.4 kmh N 6.9 mph11.1 kmh 24.92 in843.9 mb 0.00 in0.0 mm 0.00 in/hr0.0 mm/hr 0.00 in0.0 mm
06:47 AM 26.2°F-3.2°C 24.3°F-4.3°C 92% 4.0 mph N6.4 kmh N 6.3 mph10.1 kmh 24.92 in843.9 mb 0.00 in0.0 mm 0.00 in/hr0.0 mm/hr 0.00 in0.0 mm
06:52 AM 26.2°F-3.2°C 24.4°F-4.2°C 93% 4.0 mph N6.4 kmh N 5.8 mph9.3 kmh 24.92 in843.9 mb 0.00 in0.0 mm 0.00 in/hr0.0 mm/hr 0.00 in0.0 mm
06:57 AM 26.2°F-3.2°C 24.4°F-4.2°C 93% 2.0 mph N3.2 kmh N 4.5 mph7.2 kmh 24.92 in843.9 mb 0.00 in0.0 mm 0.00 in/hr0.0 mm/hr 0.00 in0.0 mm
07:02 AM 26.1°F-3.3°C 24.3°F-4.3°C 93% 1.0 mph N1.6 kmh N 3.1 mph5.0 kmh 24.92 in843.9 mb 0.00 in0.0 mm 0.00 in/hr0.0 mm/hr 0.00 in0.0 mm
07:07 AM 26.2°F-3.2°C 24.4°F-4.2°C 93% 1.0 mph N1.6 kmh N 4.0 mph6.4 kmh 24.95 in844.9 mb 0.00 in0.0 mm 0.00 in/hr0.0 mm/hr 0.00 in0.0 mm
07:12 AM 26.1°F-3.3°C 24.3°F-4.3°C 93% 2.0 mph N3.2 kmh N 4.9 mph7.9 kmh 24.95 in844.9 mb 0.00 in0.0 mm 0.00 in/hr0.0 mm/hr 0.00 in0.0 mm
07:17 AM 26.1°F-3.3°C 24.6°F-4.1°C 94% 3.0 mph NW4.8 kmh NW 4.9 mph7.9 kmh 24.95 in844.9 mb 0.00 in0.0 mm 0.00 in/hr0.0 mm/hr 0.00 in0.0 mm
07:22 AM 25.9°F-3.4°C 24.4°F-4.2°C 94% 2.0 mph NW3.2 kmh NW 3.6 mph5.8 kmh 24.95 in844.9 mb 0.00 in0.0 mm 0.00 in/hr0.0 mm/hr 0.00 in0.0 mm
07:27 AM 26.1°F-3.3°C 24.6°F-4.1°C 94% Calm Calm 2.7 mph4.3 kmh 24.95 in844.9 mb 0.00 in0.0 mm 0.00 in/hr0.0 mm/hr 0.00 in0.0 mm
07:32 AM 25.7°F-3.5°C 24.3°F-4.3°C 94% Calm Calm -- 24.95 in844.9 mb 0.00 in0.0 mm 0.00 in/hr0.0 mm/hr 0.00 in0.0 mm
07:37 AM 26.1°F-3.3°C 24.6°F-4.1°C 94% Calm Calm -- 24.98 in845.9 mb 0.00 in0.0 mm 0.00 in/hr0.0 mm/hr 0.00 in0.0 mm
07:42 AM 26.1°F-3.3°C 24.6°F-4.1°C 94% Calm Calm -- 24.98 in845.9 mb 0.00 in0.0 mm 0.00 in/hr0.0 mm/hr 0.00 in0.0 mm
07:47 AM 26.4°F-3.1°C 25.0°F-3.9°C 94% Calm Calm -- 24.98 in845.9 mb 0.00 in0.0 mm 0.00 in/hr0.0 mm/hr 0.00 in0.0 mm
07:52 AM 26.4°F-3.1°C 25.0°F-3.9°C 94% Calm Calm -- 24.98 in845.9 mb 0.00 in0.0 mm 0.00 in/hr0.0 mm/hr 0.00 in0.0 mm
07:57 AM 26.4°F-3.1°C 25.0°F-3.9°C 94% 1.0 mph NW1.6 kmh NW 4.5 mph7.2 kmh 24.98 in845.9 mb 0.00 in0.0 mm 0.00 in/hr0.0 mm/hr 0.00 in0.0 mm
08:02 AM 26.1°F-3.3°C 24.6°F-4.1°C 94% 3.0 mph NW4.8 kmh NW 5.8 mph9.3 kmh 24.98 in845.9 mb 0.00 in0.0 mm 0.00 in/hr0.0 mm/hr 0.00 in0.0 mm
08:07 AM 25.9°F-3.4°C 24.1°F-4.4°C 93% 5.0 mph NW8.0 kmh NW 6.9 mph11.1 kmh 24.98 in845.9 mb 0.00 in0.0 mm 0.00 in/hr0.0 mm/hr 0.00 in0.0 mm
08:12 AM 26.1°F-3.3°C 24.3°F-4.3°C 93% 5.0 mph NW8.0 kmh NW 7.8 mph12.6 kmh 24.98 in845.9 mb 0.00 in0.0 mm 0.00 in/hr0.0 mm/hr 0.00 in0.0 mm
08:17 AM 26.2°F-3.2°C 23.9°F-4.5°C 91% 5.0 mph NW8.0 kmh NW 6.9 mph11.1 kmh 24.98 in845.9 mb 0.00 in0.0 mm 0.00 in/hr0.0 mm/hr 0.00 in0.0 mm
08:22 AM 26.2°F-3.2°C 23.9°F-4.5°C 91% 5.0 mph NW8.0 kmh NW 6.9 mph11.1 kmh 25.01 in846.9 mb 0.00 in0.0 mm 0.00 in/hr0.0 mm/hr 0.00 in0.0 mm
08:27 AM 26.6°F-3.0°C 24.1°F-4.4°C 90% 4.0 mph NW6.4 kmh NW 5.4 mph8.7 kmh 25.01 in846.9 mb 0.00 in0.0 mm 0.00 in/hr0.0 mm/hr 0.00 in0.0 mm
08:32 AM 26.8°F-2.9°C 23.9°F-4.5°C 89% 4.0 mph NW6.4 kmh NW 5.8 mph9.3 kmh 25.01 in846.9 mb 0.00 in0.0 mm 0.00 in/hr0.0 mm/hr 0.00 in0.0 mm
08:37 AM 27.1°F-2.7°C 24.1°F-4.4°C 88% 3.0 mph WNW4.8 kmh WNW 4.5 mph7.2 kmh 25.01 in846.9 mb 0.00 in0.0 mm 0.00 in/hr0.0 mm/hr 0.00 in0.0 mm
08:42 AM 27.7°F-2.4°C 24.3°F-4.3°C 87% 2.0 mph W3.2 kmh W 4.9 mph7.9 kmh 25.01 in846.9 mb 0.00 in0.0 mm 0.00 in/hr0.0 mm/hr 0.00 in0.0 mm
08:47 AM 27.9°F-2.3°C 23.2°F-4.9°C 82% 3.0 mph WSW4.8 kmh WSW 6.7 mph10.8 kmh 25.01 in846.9 mb 0.00 in0.0 mm 0.00 in/hr0.0 mm/hr 0.00 in0.0 mm
08:52 AM 28.2°F-2.1°C 21.0°F-6.1°C 74% 4.0 mph W6.4 kmh W 6.7 mph10.8 kmh 25.01 in846.9 mb 0.00 in0.0 mm 0.00 in/hr0.0 mm/hr 0.00 in0.0 mm
08:57 AM 28.8°F-1.8°C 16.3°F-8.7°C 59% 5.0 mph W8.0 kmh W 11.0 mph17.7 kmh 25.01 in846.9 mb 0.00 in0.0 mm 0.00 in/hr0.0 mm/hr 0.00 in0.0 mm
09:02 AM 28.8°F-1.8°C 15.8°F-9.0°C 58% 6.0 mph WNW9.7 kmh WNW 9.2 mph14.8 kmh 25.01 in846.9 mb 0.00 in0.0 mm 0.00 in/hr0.0 mm/hr 0.00 in0.0 mm
09:07 AM 29.1°F-1.6°C 15.1°F-9.4°C 55% 7.0 mph NW11.3 kmh NW 11.6 mph18.7 kmh 25.04 in848.0 mb 0.00 in0.0 mm 0.00 in/hr0.0 mm/hr 0.00 in0.0 mm
09:12 AM 29.3°F-1.5°C 14.7°F-9.6°C 54% 7.0 mph WNW11.3 kmh WNW 10.1 mph16.3 kmh 25.04 in848.0 mb 0.00 in0.0 mm 0.00 in/hr0.0 mm/hr 0.00 in0.0 mm
09:17 AM 29.3°F-1.5°C 14.4°F-9.8°C 53% 7.0 mph NW11.3 kmh NW 11.0 mph17.7 kmh 25.04 in848.0 mb 0.00 in0.0 mm 0.00 in/hr0.0 mm/hr 0.00 in0.0 mm
09:22 AM 29.3°F-1.5°C 13.8°F-10.1°C 52% 7.0 mph NW11.3 kmh NW 10.1 mph16.3 kmh 25.04 in848.0 mb 0.00 in0.0 mm 0.00 in/hr0.0 mm/hr 0.00 in0.0 mm
09:27 AM 29.3°F-1.5°C 14.7°F-9.6°C 54% 7.0 mph NW11.3 kmh NW 10.5 mph16.9 kmh 25.04 in848.0 mb 0.00 in0.0 mm 0.00 in/hr0.0 mm/hr 0.00 in0.0 mm
09:32 AM 29.7°F-1.3°C 14.2°F-9.9°C 52% 7.0 mph NW11.3 kmh NW 8.3 mph13.4 kmh 25.04 in848.0 mb 0.00 in0.0 mm 0.00 in/hr0.0 mm/hr 0.00 in0.0 mm
09:37 AM 29.8°F-1.2°C 14.0°F-10.0°C 51% 6.0 mph WNW9.7 kmh WNW 12.5 mph20.1 kmh 25.04 in848.0 mb 0.00 in0.0 mm 0.00 in/hr0.0 mm/hr 0.00 in0.0 mm
09:42 AM 30.2°F-1.0°C 14.4°F-9.8°C 51% 7.0 mph WNW11.3 kmh WNW 10.5 mph16.9 kmh 25.04 in848.0 mb 0.00 in0.0 mm 0.00 in/hr0.0 mm/hr 0.00 in0.0 mm
09:47 AM 30.0°F-1.1°C 12.2°F-11.0°C 47% 7.0 mph NW11.3 kmh NW 13.0 mph20.9 kmh 25.04 in848.0 mb 0.00 in0.0 mm 0.00 in/hr0.0 mm/hr 0.00 in0.0 mm
09:52 AM 30.4°F-0.9°C 13.5°F-10.3°C 49% 7.0 mph NW11.3 kmh NW 10.1 mph16.3 kmh 25.04 in848.0 mb 0.00 in0.0 mm 0.00 in/hr0.0 mm/hr 0.00 in0.0 mm
09:57 AM 30.9°F-0.6°C 13.1°F-10.5°C 47% 6.0 mph WNW9.7 kmh WNW 8.7 mph14.0 kmh 25.04 in848.0 mb 0.00 in0.0 mm 0.00 in/hr0.0 mm/hr 0.00 in0.0 mm
10:02 AM 31.1°F-0.5°C 13.3°F-10.4°C 47% 6.0 mph NW9.7 kmh NW 10.1 mph16.3 kmh 25.04 in848.0 mb 0.00 in0.0 mm 0.00 in/hr0.0 mm/hr 0.00 in0.0 mm
10:07 AM 30.7°F-0.7°C 12.0°F-11.1°C 45% 7.0 mph NW11.3 kmh NW 11.2 mph18.0 kmh 25.04 in848.0 mb 0.00 in0.0 mm 0.00 in/hr0.0 mm/hr 0.00 in0.0 mm
10:12 AM 30.9°F-0.6°C 12.0°F-11.1°C 45% 8.0 mph NW12.9 kmh NW 11.2 mph18.0 kmh 25.04 in848.0 mb 0.00 in0.0 mm 0.00 in/hr0.0 mm/hr 0.00 in0.0 mm
10:17 AM 31.1°F-0.5°C 12.7°F-10.7°C 46% 8.0 mph NW12.9 kmh NW 10.5 mph16.9 kmh 25.04 in848.0 mb 0.00 in0.0 mm 0.00 in/hr0.0 mm/hr 0.00 in0.0 mm
10:22 AM 30.7°F-0.7°C 11.5°F-11.4°C 44% 7.0 mph NW11.3 kmh NW 11.6 mph18.7 kmh 25.07 in849.0 mb 0.00 in0.0 mm 0.00 in/hr0.0 mm/hr 0.00 in0.0 mm
10:28 AM 30.9°F-0.6°C 10.6°F-11.9°C 42% 8.0 mph NW12.9 kmh NW 14.3 mph23.0 kmh 25.07 in849.0 mb 0.00 in0.0 mm 0.00 in/hr0.0 mm/hr 0.00 in0.0 mm
10:33 AM 31.1°F-0.5°C 10.8°F-11.8°C 42% 10.0 mph NW16.1 kmh NW 13.4 mph21.6 kmh 25.07 in849.0 mb 0.00 in0.0 mm 0.00 in/hr0.0 mm/hr 0.00 in0.0 mm
10:38 AM 31.3°F-0.4°C 10.9°F-11.7°C 42% 10.0 mph NW16.1 kmh NW 14.8 mph23.8 kmh 25.07 in849.0 mb 0.00 in0.0 mm 0.00 in/hr0.0 mm/hr 0.00 in0.0 mm
10:43 AM 31.8°F-0.1°C 11.3°F-11.5°C 42% 10.0 mph NW16.1 kmh NW 16.3 mph26.2 kmh 25.07 in849.0 mb 0.00 in0.0 mm 0.00 in/hr0.0 mm/hr 0.00 in0.0 mm
10:48 AM 32.2°F0.1°C 11.7°F-11.3°C 42% 10.0 mph NW16.1 kmh NW 16.8 mph27.0 kmh 25.07 in849.0 mb 0.00 in0.0 mm 0.00 in/hr0.0 mm/hr 0.00 in0.0 mm
10:53 AM 32.2°F0.1°C 11.1°F-11.6°C 41% 10.0 mph NW16.1 kmh NW 15.2 mph24.5 kmh 25.07 in849.0 mb 0.00 in0.0 mm 0.00 in/hr0.0 mm/hr 0.00 in0.0 mm
10:58 AM 32.2°F0.1°C 11.1°F-11.6°C 41% 11.0 mph NW17.7 kmh NW 15.9 mph25.6 kmh 25.07 in849.0 mb 0.00 in0.0 mm 0.00 in/hr0.0 mm/hr 0.00 in0.0 mm
11:03 AM -5537.2°C -5537.2°C - 11.0 mph NW17.7 kmh NW 13.4 mph21.6 kmh 25.07 in849.0 mb 0.00 in0.0 mm 0.00 in/hr0.0 mm/hr 0.00 in0.0 mm
11:08 AM -5537.2°C -5537.2°C - 11.0 mph NW17.7 kmh NW 14.8 mph23.8 kmh 25.07 in849.0 mb 0.00 in0.0 mm 0.00 in/hr0.0 mm/hr 0.00 in0.0 mm
11:13 AM 32.5°F0.3°C 10.4°F-12.0°C 39% 11.0 mph NW17.7 kmh NW 15.4 mph24.8 kmh 25.07 in849.0 mb 0.00 in0.0 mm 0.00 in/hr0.0 mm/hr 0.00 in0.0 mm
11:18 AM 32.5°F0.3°C 10.9°F-11.7°C 40% 10.0 mph NW16.1 kmh NW 16.8 mph27.0 kmh 25.07 in849.0 mb 0.00 in0.0 mm 0.00 in/hr0.0 mm/hr 0.00 in0.0 mm
11:23 AM 32.5°F0.3°C 10.9°F-11.7°C 40% 11.0 mph WNW17.7 kmh WNW 17.7 mph28.5 kmh 25.10 in850.0 mb 0.00 in0.0 mm 0.00 in/hr0.0 mm/hr 0.00 in0.0 mm
11:28 AM 32.5°F0.3°C 10.4°F-12.0°C 39% 12.0 mph NW19.3 kmh NW 17.2 mph27.7 kmh 25.10 in850.0 mb 0.00 in0.0 mm 0.00 in/hr0.0 mm/hr 0.00 in0.0 mm
11:33 AM 32.7°F0.4°C 11.1°F-11.6°C 40% 12.0 mph NW19.3 kmh NW 17.7 mph28.5 kmh 25.10 in850.0 mb 0.00 in0.0 mm 0.00 in/hr0.0 mm/hr 0.00 in0.0 mm
11:38 AM 32.9°F0.5°C 11.3°F-11.5°C 40% 11.0 mph NW17.7 kmh NW 15.4 mph24.8 kmh 25.10 in850.0 mb 0.00 in0.0 mm 0.00 in/hr0.0 mm/hr 0.00 in0.0 mm
11:43 AM 33.1°F0.6°C 11.5°F-11.4°C 40% 11.0 mph NW17.7 kmh NW 17.7 mph28.5 kmh 25.10 in850.0 mb 0.00 in0.0 mm 0.00 in/hr0.0 mm/hr 0.00 in0.0 mm
11:48 AM 33.3°F0.7°C 10.9°F-11.7°C 39% 10.0 mph NW16.1 kmh NW 13.9 mph22.4 kmh 25.10 in850.0 mb 0.00 in0.0 mm 0.00 in/hr0.0 mm/hr 0.00 in0.0 mm
11:53 AM 32.7°F0.4°C 9.3°F-12.6°C 37% 10.0 mph NW16.1 kmh NW 16.3 mph26.2 kmh 25.10 in850.0 mb 0.00 in0.0 mm 0.00 in/hr0.0 mm/hr 0.00 in0.0 mm
11:58 AM 33.1°F0.6°C 11.5°F-11.4°C 40% 11.0 mph WNW17.7 kmh WNW 14.8 mph23.8 kmh 25.10 in850.0 mb 0.00 in0.0 mm 0.00 in/hr0.0 mm/hr 0.00 in0.0 mm
12:03 PM 32.7°F0.4°C 9.3°F-12.6°C 37% 11.0 mph WNW17.7 kmh WNW 15.4 mph24.8 kmh 25.10 in850.0 mb 0.00 in0.0 mm 0.00 in/hr0.0 mm/hr 0.00 in0.0 mm
12:08 PM 33.3°F0.7°C 10.4°F-12.0°C 38% 10.0 mph WNW16.1 kmh WNW 15.9 mph25.6 kmh 25.10 in850.0 mb 0.00 in0.0 mm 0.00 in/hr0.0 mm/hr 0.00 in0.0 mm
12:13 PM 33.3°F0.7°C 10.4°F-12.0°C 38% 10.0 mph NW16.1 kmh NW 13.9 mph22.4 kmh 25.10 in850.0 mb 0.00 in0.0 mm 0.00 in/hr0.0 mm/hr 0.00 in0.0 mm
12:18 PM 33.8°F1.0°C 11.5°F-11.4°C 39% 9.0 mph WNW14.5 kmh WNW 15.2 mph24.5 kmh 25.10 in850.0 mb 0.00 in0.0 mm 0.00 in/hr0.0 mm/hr 0.00 in0.0 mm
12:23 PM 33.1°F0.6°C 10.8°F-11.8°C 39% 10.0 mph WNW16.1 kmh WNW 13.9 mph22.4 kmh 25.10 in850.0 mb 0.00 in0.0 mm 0.00 in/hr0.0 mm/hr 0.00 in0.0 mm
12:28 PM 33.1°F0.6°C 11.5°F-11.4°C 40% 11.0 mph WNW17.7 kmh WNW 16.8 mph27.0 kmh 25.10 in850.0 mb 0.00 in0.0 mm 0.00 in/hr0.0 mm/hr 0.00 in0.0 mm
12:33 PM 33.4°F0.8°C 12.4°F-10.9°C 41% 11.0 mph WNW17.7 kmh WNW 15.2 mph24.5 kmh 25.10 in850.0 mb 0.00 in0.0 mm 0.00 in/hr0.0 mm/hr 0.00 in0.0 mm
12:38 PM 33.6°F0.9°C 13.5°F-10.3°C 43% 10.0 mph WNW16.1 kmh WNW 14.3 mph23.0 kmh 25.10 in850.0 mb 0.00 in0.0 mm 0.00 in/hr0.0 mm/hr 0.00 in0.0 mm
12:43 PM 33.3°F0.7°C 12.2°F-11.0°C 41% 10.0 mph WNW16.1 kmh WNW 15.2 mph24.5 kmh 25.10 in850.0 mb 0.00 in0.0 mm 0.00 in/hr0.0 mm/hr 0.00 in0.0 mm
12:48 PM 32.4°F0.2°C 11.3°F-11.5°C 41% 11.0 mph NW17.7 kmh NW 15.9 mph25.6 kmh 25.10 in850.0 mb 0.00 in0.0 mm 0.00 in/hr0.0 mm/hr 0.00 in0.0 mm
12:53 PM 32.2°F0.1°C 11.7°F-11.3°C 42% 11.0 mph NW17.7 kmh NW 15.9 mph25.6 kmh 25.10 in850.0 mb 0.00 in0.0 mm 0.00 in/hr0.0 mm/hr 0.00 in0.0 mm
12:58 PM 32.5°F0.3°C 13.6°F-10.2°C 45% 11.0 mph NW17.7 kmh NW 16.3 mph26.2 kmh 25.10 in850.0 mb 0.00 in0.0 mm 0.00 in/hr0.0 mm/hr 0.00 in0.0 mm
01:03 PM 31.6°F-0.2°C 12.2°F-11.0°C 44% 13.0 mph NW20.9 kmh NW 17.7 mph28.5 kmh 25.10 in850.0 mb 0.00 in0.0 mm 0.00 in/hr0.0 mm/hr 0.00 in0.0 mm
01:08 PM 32.0°F0.0°C 14.5°F-9.7°C 48% 13.0 mph NW20.9 kmh NW 15.9 mph25.6 kmh 25.10 in850.0 mb 0.00 in0.0 mm 0.00 in/hr0.0 mm/hr 0.00 in0.0 mm
01:13 PM 30.9°F-0.6°C 12.6°F-10.8°C 46% 13.0 mph NW20.9 kmh NW 18.1 mph29.1 kmh 25.10 in850.0 mb 0.00 in0.0 mm 0.00 in/hr0.0 mm/hr 0.00 in0.0 mm
01:18 PM 30.7°F-0.7°C 9.9°F-12.3°C 41% 12.0 mph W19.3 kmh W 18.1 mph29.1 kmh 25.10 in850.0 mb 0.00 in0.0 mm 0.00 in/hr0.0 mm/hr 0.00 in0.0 mm
01:23 PM 31.5°F-0.3°C 11.1°F-11.6°C 42% 10.0 mph WSW16.1 kmh WSW 12.1 mph19.5 kmh 25.10 in850.0 mb 0.00 in0.0 mm 0.00 in/hr0.0 mm/hr 0.00 in0.0 mm
01:28 PM 32.2°F0.1°C 12.2°F-11.0°C 43% 9.0 mph W14.5 kmh W 13.4 mph21.6 kmh 25.10 in850.0 mb 0.00 in0.0 mm 0.00 in/hr0.0 mm/hr 0.00 in0.0 mm
01:33 PM 32.5°F0.3°C 11.5°F-11.4°C 41% 9.0 mph W14.5 kmh W 13.0 mph20.9 kmh 25.10 in850.0 mb 0.00 in0.0 mm 0.00 in/hr0.0 mm/hr 0.00 in0.0 mm
01:38 PM 32.7°F0.4°C 11.7°F-11.3°C 41% 8.0 mph WSW12.9 kmh WSW 11.2 mph18.0 kmh 25.10 in850.0 mb 0.00 in0.0 mm 0.00 in/hr0.0 mm/hr 0.00 in0.0 mm
01:43 PM 32.7°F0.4°C 12.7°F-10.7°C 43% 6.0 mph WSW9.7 kmh WSW 7.8 mph12.6 kmh 25.10 in850.0 mb 0.00 in0.0 mm 0.00 in/hr0.0 mm/hr 0.00 in0.0 mm
01:48 PM 32.4°F0.2°C 9.0°F-12.8°C 37% 6.0 mph W9.7 kmh W 11.6 mph18.7 kmh 25.10 in850.0 mb 0.00 in0.0 mm 0.00 in/hr0.0 mm/hr 0.00 in0.0 mm
01:53 PM 33.4°F0.8°C 11.1°F-11.6°C 39% 7.0 mph WNW11.3 kmh WNW 10.5 mph16.9 kmh 25.10 in850.0 mb 0.00 in0.0 mm 0.00 in/hr0.0 mm/hr 0.00 in0.0 mm
01:58 PM 33.3°F0.7°C 10.9°F-11.7°C 39% 8.0 mph NW12.9 kmh NW 16.3 mph26.2 kmh 25.10 in850.0 mb 0.00 in0.0 mm 0.00 in/hr0.0 mm/hr 0.00 in0.0 mm
02:03 PM 30.0°F-1.1°C 17.8°F-7.9°C 60% 13.0 mph NNW20.9 kmh NNW 24.8 mph39.9 kmh 25.10 in850.0 mb 0.00 in0.0 mm 0.00 in/hr0.0 mm/hr 0.00 in0.0 mm
02:08 PM 28.2°F-2.1°C 18.3°F-7.6°C 66% 17.0 mph NNW27.4 kmh NNW 25.3 mph40.7 kmh 25.13 in851.0 mb 0.00 in0.0 mm 0.00 in/hr0.0 mm/hr 0.00 in0.0 mm
02:13 PM 28.8°F-1.8°C 20.5°F-6.4°C 71% 17.0 mph NNW27.4 kmh NNW 21.9 mph35.2 kmh 25.13 in851.0 mb 0.00 in0.0 mm 0.00 in/hr0.0 mm/hr 0.00 in0.0 mm
02:18 PM 28.2°F-2.1°C 19.4°F-7.0°C 69% 16.0 mph NW25.7 kmh NW 20.6 mph33.2 kmh 25.13 in851.0 mb 0.00 in0.0 mm 0.00 in/hr0.0 mm/hr 0.00 in0.0 mm
02:23 PM 28.0°F-2.2°C 18.1°F-7.7°C 66% 14.0 mph NNW22.5 kmh NNW 19.5 mph31.4 kmh 25.13 in851.0 mb 0.00 in0.0 mm 0.00 in/hr0.0 mm/hr 0.00 in0.0 mm
02:28 PM 28.8°F-1.8°C 17.8°F-7.9°C 63% 11.0 mph NNW17.7 kmh NNW 14.8 mph23.8 kmh 25.13 in851.0 mb 0.00 in0.0 mm 0.00 in/hr0.0 mm/hr 0.00 in0.0 mm
02:33 PM 28.8°F-1.8°C 15.8°F-9.0°C 58% 10.0 mph NNW16.1 kmh NNW 14.8 mph23.8 kmh 25.13 in851.0 mb 0.00 in0.0 mm 0.00 in/hr0.0 mm/hr 0.00 in0.0 mm
02:38 PM 27.7°F-2.4°C 16.7°F-8.5°C 63% 10.0 mph NW16.1 kmh NW 14.8 mph23.8 kmh 25.13 in851.0 mb 0.00 in0.0 mm 0.00 in/hr0.0 mm/hr 0.00 in0.0 mm
02:43 PM 27.5°F-2.5°C 18.0°F-7.8°C 67% 8.0 mph NW12.9 kmh NW 10.5 mph16.9 kmh 25.13 in851.0 mb 0.00 in0.0 mm 0.00 in/hr0.0 mm/hr 0.00 in0.0 mm
02:48 PM 28.0°F-2.2°C 19.9°F-6.7°C 71% 7.0 mph W11.3 kmh W 11.0 mph17.7 kmh 25.13 in851.0 mb 0.00 in0.0 mm 0.00 in/hr0.0 mm/hr 0.00 in0.0 mm
02:53 PM 29.3°F-1.5°C 19.8°F-6.8°C 67% 7.0 mph WSW11.3 kmh WSW 11.0 mph17.7 kmh 25.13 in851.0 mb 0.00 in0.0 mm 0.00 in/hr0.0 mm/hr 0.00 in0.0 mm
02:58 PM 31.1°F-0.5°C 19.9°F-6.7°C 63% 7.0 mph SW11.3 kmh SW 10.1 mph16.3 kmh 25.13 in851.0 mb 0.00 in0.0 mm 0.00 in/hr0.0 mm/hr 0.00 in0.0 mm
03:03 PM 31.5°F-0.3°C 18.0°F-7.8°C 57% 6.0 mph SW9.7 kmh SW 8.7 mph14.0 kmh 25.13 in851.0 mb 0.00 in0.0 mm 0.00 in/hr0.0 mm/hr 0.00 in0.0 mm
03:08 PM 32.7°F0.4°C 18.9°F-7.3°C 56% 5.0 mph SW8.0 kmh SW 8.3 mph13.4 kmh 25.13 in851.0 mb 0.00 in0.0 mm 0.00 in/hr0.0 mm/hr 0.00 in0.0 mm
03:13 PM 33.1°F0.6°C 15.1°F-9.4°C 47% 5.0 mph W8.0 kmh W 11.2 mph18.0 kmh 25.13 in851.0 mb 0.00 in0.0 mm 0.00 in/hr0.0 mm/hr 0.00 in0.0 mm
03:18 PM 33.3°F0.7°C 12.2°F-11.0°C 41% 8.0 mph NW12.9 kmh NW 13.0 mph20.9 kmh 25.13 in851.0 mb 0.00 in0.0 mm 0.00 in/hr0.0 mm/hr 0.00 in0.0 mm
03:23 PM 33.6°F0.9°C 11.8°F-11.2°C 40% 10.0 mph NW16.1 kmh NW 15.2 mph24.5 kmh 25.13 in851.0 mb 0.00 in0.0 mm 0.00 in/hr0.0 mm/hr 0.00 in0.0 mm
03:29 PM 33.8°F1.0°C 12.0°F-11.1°C 40% 10.0 mph NW16.1 kmh NW 13.9 mph22.4 kmh 25.13 in851.0 mb 0.00 in0.0 mm 0.00 in/hr0.0 mm/hr 0.00 in0.0 mm
03:34 PM 33.6°F0.9°C 12.4°F-10.9°C 41% 12.0 mph NW19.3 kmh NW 21.0 mph33.8 kmh 25.13 in851.0 mb 0.00 in0.0 mm 0.00 in/hr0.0 mm/hr 0.00 in0.0 mm
03:39 PM 33.8°F1.0°C 13.1°F-10.5°C 42% 13.0 mph NW20.9 kmh NW 19.9 mph32.0 kmh 25.13 in851.0 mb 0.00 in0.0 mm 0.00 in/hr0.0 mm/hr 0.00 in0.0 mm
03:44 PM 33.6°F0.9°C 11.8°F-11.2°C 40% 13.0 mph NW20.9 kmh NW 19.9 mph32.0 kmh 25.13 in851.0 mb 0.00 in0.0 mm 0.00 in/hr0.0 mm/hr 0.00 in0.0 mm
03:49 PM 33.3°F0.7°C 8.6°F-13.0°C 35% 13.0 mph NNW20.9 kmh NNW 18.6 mph29.9 kmh 25.13 in851.0 mb 0.00 in0.0 mm 0.00 in/hr0.0 mm/hr 0.00 in0.0 mm
03:54 PM 33.8°F1.0°C 8.4°F-13.1°C 34% 12.0 mph NW19.3 kmh NW 14.8 mph23.8 kmh 25.13 in851.0 mb 0.00 in0.0 mm 0.00 in/hr0.0 mm/hr 0.00 in0.0 mm
03:59 PM 33.8°F1.0°C 7.7°F-13.5°C 33% 9.0 mph NW14.5 kmh NW 11.0 mph17.7 kmh 25.13 in851.0 mb 0.00 in0.0 mm 0.00 in/hr0.0 mm/hr 0.00 in0.0 mm
04:04 PM 34.3°F1.3°C 8.2°F-13.2°C 33% 8.0 mph NW12.9 kmh NW 11.2 mph18.0 kmh 25.13 in851.0 mb 0.00 in0.0 mm 0.00 in/hr0.0 mm/hr 0.00 in0.0 mm
04:09 PM 34.5°F1.4°C 8.4°F-13.1°C 33% 8.0 mph NW12.9 kmh NW 13.4 mph21.6 kmh 25.13 in851.0 mb 0.00 in0.0 mm 0.00 in/hr0.0 mm/hr 0.00 in0.0 mm
04:14 PM 34.5°F1.4°C 8.4°F-13.1°C 33% 7.0 mph NW11.3 kmh NW 11.0 mph17.7 kmh 25.13 in851.0 mb 0.00 in0.0 mm 0.00 in/hr0.0 mm/hr 0.00 in0.0 mm
04:19 PM 34.9°F1.6°C 8.1°F-13.3°C 32% 7.0 mph WNW11.3 kmh WNW 9.6 mph15.4 kmh 25.13 in851.0 mb 0.00 in0.0 mm 0.00 in/hr0.0 mm/hr 0.00 in0.0 mm
04:24 PM 34.3°F1.3°C 3.9°F-15.6°C 27% 7.0 mph WNW11.3 kmh WNW 9.6 mph15.4 kmh 25.13 in851.0 mb 0.00 in0.0 mm 0.00 in/hr0.0 mm/hr 0.00 in0.0 mm
04:29 PM 34.9°F1.6°C 1.8°F-16.8°C 24% 6.0 mph WNW9.7 kmh WNW 8.3 mph13.4 kmh 25.13 in851.0 mb 0.00 in0.0 mm 0.00 in/hr0.0 mm/hr 0.00 in0.0 mm
04:34 PM 34.9°F1.6°C 4.3°F-15.4°C 27% 5.0 mph W8.0 kmh W 10.1 mph16.3 kmh 25.13 in851.0 mb 0.00 in0.0 mm 0.00 in/hr0.0 mm/hr 0.00 in0.0 mm
04:39 PM 35.1°F1.7°C 0.1°F-17.7°C 22% 5.0 mph W8.0 kmh W 8.3 mph13.4 kmh 25.13 in851.0 mb 0.00 in0.0 mm 0.00 in/hr0.0 mm/hr 0.00 in0.0 mm
04:44 PM 35.1°F1.7°C 1.9°F-16.7°C 24% 5.0 mph WNW8.0 kmh WNW 7.4 mph11.9 kmh 25.13 in851.0 mb 0.00 in0.0 mm 0.00 in/hr0.0 mm/hr 0.00 in0.0 mm
04:49 PM 34.9°F1.6°C 5.9°F-14.5°C 29% 5.0 mph NW8.0 kmh NW 9.6 mph15.4 kmh 25.13 in851.0 mb 0.00 in0.0 mm 0.00 in/hr0.0 mm/hr 0.00 in0.0 mm
04:54 PM 33.3°F0.7°C 11.7°F-11.3°C 40% 5.0 mph E8.0 kmh E 8.3 mph13.4 kmh 25.13 in851.0 mb 0.00 in0.0 mm 0.00 in/hr0.0 mm/hr 0.00 in0.0 mm
04:59 PM 32.2°F0.1°C 13.8°F-10.1°C 46% 5.0 mph SE8.0 kmh SE 13.0 mph20.9 kmh 25.13 in851.0 mb 0.00 in0.0 mm 0.00 in/hr0.0 mm/hr 0.00 in0.0 mm
05:04 PM 31.8°F-0.1°C 15.3°F-9.3°C 50% 8.0 mph ESE12.9 kmh ESE 15.2 mph24.5 kmh 25.13 in851.0 mb 0.00 in0.0 mm 0.00 in/hr0.0 mm/hr 0.00 in0.0 mm
05:09 PM 31.6°F-0.2°C 15.6°F-9.1°C 51% 10.0 mph ESE16.1 kmh ESE 14.3 mph23.0 kmh 25.13 in851.0 mb 0.00 in0.0 mm 0.00 in/hr0.0 mm/hr 0.00 in0.0 mm
05:14 PM 31.3°F-0.4°C 15.8°F-9.0°C 52% 10.0 mph ESE16.1 kmh ESE 12.1 mph19.5 kmh 25.13 in851.0 mb 0.00 in0.0 mm 0.00 in/hr0.0 mm/hr 0.00 in0.0 mm
05:19 PM 31.3°F-0.4°C 16.5°F-8.6°C 54% 9.0 mph ESE14.5 kmh ESE 12.1 mph19.5 kmh 25.13 in851.0 mb 0.00 in0.0 mm 0.00 in/hr0.0 mm/hr 0.00 in0.0 mm
05:24 PM 30.9°F-0.6°C 16.7°F-8.5°C 55% 8.0 mph ESE12.9 kmh ESE 10.5 mph16.9 kmh 25.13 in851.0 mb 0.00 in0.0 mm 0.00 in/hr0.0 mm/hr 0.00 in0.0 mm
05:29 PM 30.7°F-0.7°C 16.5°F-8.6°C 55% 8.0 mph ESE12.9 kmh ESE 11.0 mph17.7 kmh 25.13 in851.0 mb 0.00 in0.0 mm 0.00 in/hr0.0 mm/hr 0.00 in0.0 mm
05:34 PM 30.4°F-0.9°C 16.5°F-8.6°C 56% 8.0 mph ESE12.9 kmh ESE 9.6 mph15.4 kmh 25.13 in851.0 mb 0.00 in0.0 mm 0.00 in/hr0.0 mm/hr 0.00 in0.0 mm
05:39 PM 30.4°F-0.9°C 17.1°F-8.3°C 57% 7.0 mph ESE11.3 kmh ESE 8.7 mph14.0 kmh 25.13 in851.0 mb 0.00 in0.0 mm 0.00 in/hr0.0 mm/hr 0.00 in0.0 mm
05:44 PM 30.2°F-1.0°C 16.9°F-8.4°C 57% 6.0 mph E9.7 kmh E 9.2 mph14.8 kmh 25.13 in851.0 mb 0.00 in0.0 mm 0.00 in/hr0.0 mm/hr 0.00 in0.0 mm
05:49 PM 30.2°F-1.0°C 16.9°F-8.4°C 57% 6.0 mph ESE9.7 kmh ESE 7.4 mph11.9 kmh 25.13 in851.0 mb 0.00 in0.0 mm 0.00 in/hr0.0 mm/hr 0.00 in0.0 mm
05:54 PM 30.2°F-1.0°C 16.3°F-8.7°C 56% 5.0 mph ESE8.0 kmh ESE 6.9 mph11.1 kmh 25.13 in851.0 mb 0.00 in0.0 mm 0.00 in/hr0.0 mm/hr 0.00 in0.0 mm
05:59 PM 30.2°F-1.0°C 16.0°F-8.9°C 55% 5.0 mph SE8.0 kmh SE 6.7 mph10.8 kmh 25.13 in851.0 mb 0.00 in0.0 mm 0.00 in/hr0.0 mm/hr 0.00 in0.0 mm
06:04 PM 29.8°F-1.2°C 15.3°F-9.3°C 54% 4.0 mph SE6.4 kmh SE 6.3 mph10.1 kmh 25.13 in851.0 mb 0.00 in0.0 mm 0.00 in/hr0.0 mm/hr 0.00 in0.0 mm
06:09 PM 29.7°F-1.3°C 15.1°F-9.4°C 54% 4.0 mph SE6.4 kmh SE 4.5 mph7.2 kmh 25.13 in851.0 mb 0.00 in0.0 mm 0.00 in/hr0.0 mm/hr 0.00 in0.0 mm
06:14 PM 28.9°F-1.7°C 15.3°F-9.3°C 56% 4.0 mph ESE6.4 kmh ESE 6.3 mph10.1 kmh 25.13 in851.0 mb 0.00 in0.0 mm 0.00 in/hr0.0 mm/hr 0.00 in0.0 mm
06:19 PM 29.1°F-1.6°C 15.8°F-9.0°C 57% 4.0 mph E6.4 kmh E 5.8 mph9.3 kmh 25.13 in851.0 mb 0.00 in0.0 mm 0.00 in/hr0.0 mm/hr 0.00 in0.0 mm
06:24 PM 29.3°F-1.5°C 14.7°F-9.6°C 54% 3.0 mph E4.8 kmh E 6.3 mph10.1 kmh 25.13 in851.0 mb 0.00 in0.0 mm 0.00 in/hr0.0 mm/hr 0.00 in0.0 mm
06:29 PM 29.5°F-1.4°C 14.0°F-10.0°C 52% 2.0 mph ESE3.2 kmh ESE 4.0 mph6.4 kmh 25.13 in851.0 mb 0.00 in0.0 mm 0.00 in/hr0.0 mm/hr 0.00 in0.0 mm
06:34 PM 28.8°F-1.8°C 14.7°F-9.6°C 55% 2.0 mph ESE3.2 kmh ESE 4.9 mph7.9 kmh 25.13 in851.0 mb 0.00 in0.0 mm 0.00 in/hr0.0 mm/hr 0.00 in0.0 mm
06:39 PM 28.6°F-1.9°C 15.3°F-9.3°C 57% 4.0 mph ENE6.4 kmh ENE 5.8 mph9.3 kmh 25.13 in851.0 mb 0.00 in0.0 mm 0.00 in/hr0.0 mm/hr 0.00 in0.0 mm
06:44 PM 28.6°F-1.9°C 14.9°F-9.5°C 56% 3.0 mph ENE4.8 kmh ENE 4.9 mph7.9 kmh 25.13 in851.0 mb 0.00 in0.0 mm 0.00 in/hr0.0 mm/hr 0.00 in0.0 mm
06:49 PM 28.4°F-2.0°C 14.7°F-9.6°C 56% 1.0 mph ENE1.6 kmh ENE 3.1 mph5.0 kmh 25.13 in851.0 mb 0.00 in0.0 mm 0.00 in/hr0.0 mm/hr 0.00 in0.0 mm
06:54 PM 28.4°F-2.0°C 14.4°F-9.8°C 55% Calm Calm 3.1 mph5.0 kmh 25.16 in852.0 mb 0.00 in0.0 mm 0.00 in/hr0.0 mm/hr 0.00 in0.0 mm
06:59 PM 28.0°F-2.2°C 14.0°F-10.0°C 55% 1.0 mph ENE1.6 kmh ENE 3.6 mph5.8 kmh 25.16 in852.0 mb 0.00 in0.0 mm 0.00 in/hr0.0 mm/hr 0.00 in0.0 mm
07:04 PM 28.0°F-2.2°C 13.6°F-10.2°C 54% 1.0 mph ENE1.6 kmh ENE 4.5 mph7.2 kmh 25.16 in852.0 mb 0.00 in0.0 mm 0.00 in/hr0.0 mm/hr 0.00 in0.0 mm
07:09 PM 27.7°F-2.4°C 12.4°F-10.9°C 52% 1.0 mph ENE1.6 kmh ENE 4.5 mph7.2 kmh 25.16 in852.0 mb 0.00 in0.0 mm 0.00 in/hr0.0 mm/hr 0.00 in0.0 mm
07:14 PM 28.6°F-1.9°C 7.9°F-13.4°C 41% 3.0 mph E4.8 kmh E 6.9 mph11.1 kmh 25.16 in852.0 mb 0.00 in0.0 mm 0.00 in/hr0.0 mm/hr 0.00 in0.0 mm
07:19 PM 28.9°F-1.7°C 4.8°F-15.1°C 35% 5.0 mph WSW8.0 kmh WSW 6.9 mph11.1 kmh 25.16 in852.0 mb 0.00 in0.0 mm 0.00 in/hr0.0 mm/hr 0.00 in0.0 mm
07:24 PM 29.3°F-1.5°C 3.7°F-15.7°C 33% 5.0 mph WSW8.0 kmh WSW 8.3 mph13.4 kmh 25.16 in852.0 mb 0.00 in0.0 mm 0.00 in/hr0.0 mm/hr 0.00 in0.0 mm
07:29 PM 29.3°F-1.5°C 3.2°F-16.0°C 32% 5.0 mph WSW8.0 kmh WSW 8.3 mph13.4 kmh 25.16 in852.0 mb 0.00 in0.0 mm 0.00 in/hr0.0 mm/hr 0.00 in0.0 mm
07:34 PM 29.5°F-1.4°C 2.7°F-16.3°C 31% 6.0 mph WSW9.7 kmh WSW 10.1 mph16.3 kmh 25.16 in852.0 mb 0.00 in0.0 mm 0.00 in/hr0.0 mm/hr 0.00 in0.0 mm
07:39 PM 29.1°F-1.6°C 2.3°F-16.5°C 31% 6.0 mph WSW9.7 kmh WSW 10.1 mph16.3 kmh 25.16 in852.0 mb 0.00 in0.0 mm 0.00 in/hr0.0 mm/hr 0.00 in0.0 mm
07:44 PM 29.1°F-1.6°C 2.3°F-16.5°C 31% 6.0 mph WSW9.7 kmh WSW 9.6 mph15.4 kmh 25.16 in852.0 mb 0.00 in0.0 mm 0.00 in/hr0.0 mm/hr 0.00 in0.0 mm
07:49 PM 28.9°F-1.7°C 2.1°F-16.6°C 31% 6.0 mph WSW9.7 kmh WSW 9.2 mph14.8 kmh 25.16 in852.0 mb 0.00 in0.0 mm 0.00 in/hr0.0 mm/hr 0.00 in0.0 mm
07:54 PM 28.2°F-2.1°C 2.1°F-16.6°C 32% 5.0 mph W8.0 kmh W 7.4 mph11.9 kmh 25.16 in852.0 mb 0.00 in0.0 mm 0.00 in/hr0.0 mm/hr 0.00 in0.0 mm
07:59 PM 28.6°F-1.9°C 2.5°F-16.4°C 32% 5.0 mph WNW8.0 kmh WNW 6.9 mph11.1 kmh 25.16 in852.0 mb 0.00 in0.0 mm 0.00 in/hr0.0 mm/hr 0.00 in0.0 mm
08:04 PM 28.6°F-1.9°C 1.8°F-16.8°C 31% 5.0 mph W8.0 kmh W 9.2 mph14.8 kmh 25.16 in852.0 mb 0.00 in0.0 mm 0.00 in/hr0.0 mm/hr 0.00 in0.0 mm
08:09 PM 28.2°F-2.1°C 2.1°F-16.6°C 32% 6.0 mph WSW9.7 kmh WSW 7.8 mph12.6 kmh 25.16 in852.0 mb 0.00 in0.0 mm 0.00 in/hr0.0 mm/hr 0.00 in0.0 mm
08:14 PM 27.9°F-2.3°C 1.9°F-16.7°C 32% 5.0 mph WSW8.0 kmh WSW 6.7 mph10.8 kmh 25.16 in852.0 mb 0.00 in0.0 mm 0.00 in/hr0.0 mm/hr 0.00 in0.0 mm
08:20 PM 27.7°F-2.4°C 1.8°F-16.8°C 32% 5.0 mph WSW8.0 kmh WSW 8.7 mph14.0 kmh 25.16 in852.0 mb 0.00 in0.0 mm 0.00 in/hr0.0 mm/hr 0.00 in0.0 mm
08:24 PM 27.5°F-2.5°C 1.6°F-16.9°C 32% 5.0 mph WSW8.0 kmh WSW 6.9 mph11.1 kmh 25.16 in852.0 mb 0.00 in0.0 mm 0.00 in/hr0.0 mm/hr 0.00 in0.0 mm
08:30 PM 27.3°F-2.6°C 1.4°F-17.0°C 32% 4.0 mph WSW6.4 kmh WSW 7.8 mph12.6 kmh 25.16 in852.0 mb 0.00 in0.0 mm 0.00 in/hr0.0 mm/hr 0.00 in0.0 mm
08:35 PM 27.3°F-2.6°C 1.4°F-17.0°C 32% 5.0 mph WSW8.0 kmh WSW 7.8 mph12.6 kmh 25.16 in852.0 mb 0.00 in0.0 mm 0.00 in/hr0.0 mm/hr 0.00 in0.0 mm
08:40 PM 27.3°F-2.6°C 1.4°F-17.0°C 32% 5.0 mph WSW8.0 kmh WSW 7.8 mph12.6 kmh 25.16 in852.0 mb 0.00 in0.0 mm 0.00 in/hr0.0 mm/hr 0.00 in0.0 mm
08:45 PM 27.0°F-2.8°C 1.0°F-17.2°C 32% 4.0 mph WSW6.4 kmh WSW 6.9 mph11.1 kmh 25.16 in852.0 mb 0.00 in0.0 mm 0.00 in/hr0.0 mm/hr 0.00 in0.0 mm
08:50 PM 26.6°F-3.0°C 0.7°F-17.4°C 32% 4.0 mph WSW6.4 kmh WSW 7.8 mph12.6 kmh 25.16 in852.0 mb 0.00 in0.0 mm 0.00 in/hr0.0 mm/hr 0.00 in0.0 mm
08:55 PM 26.8°F-2.9°C 0.9°F-17.3°C 32% 5.0 mph WSW8.0 kmh WSW 10.5 mph16.9 kmh 25.19 in853.0 mb 0.00 in0.0 mm 0.00 in/hr0.0 mm/hr 0.00 in0.0 mm
09:00 PM 27.0°F-2.8°C 0.3°F-17.6°C 31% 7.0 mph WSW11.3 kmh WSW 12.1 mph19.5 kmh 25.19 in853.0 mb 0.00 in0.0 mm 0.00 in/hr0.0 mm/hr 0.00 in0.0 mm
09:05 PM 26.8°F-2.9°C 0.3°F-17.6°C 31% 7.0 mph WSW11.3 kmh WSW 11.0 mph17.7 kmh 25.19 in853.0 mb 0.00 in0.0 mm 0.00 in/hr0.0 mm/hr 0.00 in0.0 mm
09:10 PM 26.8°F-2.9°C -1.1°F-18.4°C 29% 7.0 mph WSW11.3 kmh WSW 12.1 mph19.5 kmh 25.19 in853.0 mb 0.00 in0.0 mm 0.00 in/hr0.0 mm/hr 0.00 in0.0 mm
09:15 PM 26.8°F-2.9°C -1.1°F-18.4°C 29% 8.0 mph WSW12.9 kmh WSW 12.5 mph20.1 kmh 25.19 in853.0 mb 0.00 in0.0 mm 0.00 in/hr0.0 mm/hr 0.00 in0.0 mm
09:20 PM 27.1°F-2.7°C -3.1°F-19.5°C 26% 8.0 mph WSW12.9 kmh WSW 13.0 mph20.9 kmh 25.19 in853.0 mb 0.00 in0.0 mm 0.00 in/hr0.0 mm/hr 0.00 in0.0 mm
09:25 PM 27.0°F-2.8°C -3.3°F-19.6°C 26% 8.0 mph WSW12.9 kmh WSW 13.0 mph20.9 kmh 25.19 in853.0 mb 0.00 in0.0 mm 0.00 in/hr0.0 mm/hr 0.00 in0.0 mm
09:30 PM 26.6°F-3.0°C -3.6°F-19.8°C 26% 9.0 mph WSW14.5 kmh WSW 13.9 mph22.4 kmh 25.19 in853.0 mb 0.00 in0.0 mm 0.00 in/hr0.0 mm/hr 0.00 in0.0 mm
09:35 PM 26.4°F-3.1°C -1.5°F-18.6°C 29% 8.0 mph WSW12.9 kmh WSW 13.0 mph20.9 kmh 25.19 in853.0 mb 0.00 in0.0 mm 0.00 in/hr0.0 mm/hr 0.00 in0.0 mm
09:40 PM 26.4°F-3.1°C -3.8°F-19.9°C 26% 8.0 mph WSW12.9 kmh WSW 12.5 mph20.1 kmh 25.19 in853.0 mb 0.00 in0.0 mm 0.00 in/hr0.0 mm/hr 0.00 in0.0 mm
09:45 PM 26.2°F-3.2°C -4.0°F-20.0°C 26% 8.0 mph WSW12.9 kmh WSW 12.5 mph20.1 kmh 25.19 in853.0 mb 0.00 in0.0 mm 0.00 in/hr0.0 mm/hr 0.00 in0.0 mm
09:50 PM 26.2°F-3.2°C -1.7°F-18.7°C 29% 7.0 mph WSW11.3 kmh WSW 9.6 mph15.4 kmh 25.19 in853.0 mb 0.00 in0.0 mm 0.00 in/hr0.0 mm/hr 0.00 in0.0 mm
09:55 PM 26.2°F-3.2°C -0.2°F-17.9°C 31% 6.0 mph W9.7 kmh W 9.2 mph14.8 kmh 25.19 in853.0 mb 0.00 in0.0 mm 0.00 in/hr0.0 mm/hr 0.00 in0.0 mm
10:00 PM 26.1°F-3.3°C 2.8°F-16.2°C 36% 5.0 mph WNW8.0 kmh WNW 7.4 mph11.9 kmh 25.19 in853.0 mb 0.00 in0.0 mm 0.00 in/hr0.0 mm/hr 0.00 in0.0 mm
10:05 PM 25.2°F-3.8°C 10.9°F-11.7°C 54% 5.0 mph NW8.0 kmh NW 7.4 mph11.9 kmh 25.19 in853.0 mb 0.00 in0.0 mm 0.00 in/hr0.0 mm/hr 0.00 in0.0 mm
10:10 PM 24.6°F-4.1°C 11.1°F-11.6°C 56% 4.0 mph NNW6.4 kmh NNW 6.3 mph10.1 kmh 25.22 in854.0 mb 0.00 in0.0 mm 0.00 in/hr0.0 mm/hr 0.00 in0.0 mm
10:15 PM 24.1°F-4.4°C 11.1°F-11.6°C 57% 4.0 mph WNW6.4 kmh WNW 5.4 mph8.7 kmh 25.22 in854.0 mb 0.00 in0.0 mm 0.00 in/hr0.0 mm/hr 0.00 in0.0 mm
10:20 PM 23.9°F-4.5°C 12.0°F-11.1°C 60% 3.0 mph W4.8 kmh W 4.5 mph7.2 kmh 25.22 in854.0 mb 0.00 in0.0 mm 0.00 in/hr0.0 mm/hr 0.00 in0.0 mm
10:25 PM 23.9°F-4.5°C 13.5°F-10.3°C 64% 3.0 mph W4.8 kmh W 4.0 mph6.4 kmh 25.22 in854.0 mb 0.00 in0.0 mm 0.00 in/hr0.0 mm/hr 0.00 in0.0 mm
10:30 PM 23.7°F-4.6°C 13.6°F-10.2°C 65% 3.0 mph W4.8 kmh W 4.5 mph7.2 kmh 25.22 in854.0 mb 0.00 in0.0 mm 0.00 in/hr0.0 mm/hr 0.00 in0.0 mm
10:35 PM 23.5°F-4.7°C 13.8°F-10.1°C 66% 2.0 mph W3.2 kmh W 3.6 mph5.8 kmh 25.22 in854.0 mb 0.00 in0.0 mm 0.00 in/hr0.0 mm/hr 0.00 in0.0 mm
10:40 PM 23.7°F-4.6°C 14.7°F-9.6°C 68% 2.0 mph W3.2 kmh W 4.0 mph6.4 kmh 25.22 in854.0 mb 0.00 in0.0 mm 0.00 in/hr0.0 mm/hr 0.00 in0.0 mm
10:45 PM 23.5°F-4.7°C 14.5°F-9.7°C 68% 1.0 mph WNW1.6 kmh WNW 3.1 mph5.0 kmh 25.22 in854.0 mb 0.00 in0.0 mm 0.00 in/hr0.0 mm/hr 0.00 in0.0 mm
10:50 PM 23.5°F-4.7°C 14.9°F-9.5°C 69% Calm Calm 4.5 mph7.2 kmh 25.22 in854.0 mb 0.00 in0.0 mm 0.00 in/hr0.0 mm/hr 0.00 in0.0 mm
10:55 PM 22.8°F-5.1°C 13.8°F-10.1°C 68% 2.0 mph W3.2 kmh W 5.4 mph8.7 kmh 25.22 in854.0 mb 0.00 in0.0 mm 0.00 in/hr0.0 mm/hr 0.00 in0.0 mm
11:00 PM 22.3°F-5.4°C 13.3°F-10.4°C 68% 3.0 mph WSW4.8 kmh WSW 4.5 mph7.2 kmh 25.22 in854.0 mb 0.00 in0.0 mm 0.00 in/hr0.0 mm/hr 0.00 in0.0 mm
11:05 PM 21.9°F-5.6°C 12.9°F-10.6°C 68% 1.0 mph SW1.6 kmh SW 3.1 mph5.0 kmh 25.22 in854.0 mb 0.00 in0.0 mm 0.00 in/hr0.0 mm/hr 0.00 in0.0 mm
11:10 PM 22.1°F-5.5°C 13.8°F-10.1°C 70% 1.0 mph SW1.6 kmh SW 3.6 mph5.8 kmh 25.22 in854.0 mb 0.00 in0.0 mm 0.00 in/hr0.0 mm/hr 0.00 in0.0 mm
11:15 PM 22.1°F-5.5°C 13.8°F-10.1°C 70% 1.0 mph SW1.6 kmh SW 4.5 mph7.2 kmh 25.22 in854.0 mb 0.00 in0.0 mm 0.00 in/hr0.0 mm/hr 0.00 in0.0 mm
11:20 PM 22.6°F-5.2°C 12.0°F-11.1°C 63% 2.0 mph WSW3.2 kmh WSW 5.4 mph8.7 kmh 25.22 in854.0 mb 0.00 in0.0 mm 0.00 in/hr0.0 mm/hr 0.00 in0.0 mm
11:25 PM 23.0°F-5.0°C 8.4°F-13.1°C 53% 4.0 mph W6.4 kmh W 8.7 mph14.0 kmh 25.25 in855.1 mb 0.00 in0.0 mm 0.00 in/hr0.0 mm/hr 0.00 in0.0 mm
11:30 PM 24.3°F-4.3°C 5.0°F-15.0°C 43% 5.0 mph W8.0 kmh W 8.7 mph14.0 kmh 25.25 in855.1 mb 0.00 in0.0 mm 0.00 in/hr0.0 mm/hr 0.00 in0.0 mm
11:35 PM 24.1°F-4.4°C 4.3°F-15.4°C 42% 4.0 mph W6.4 kmh W 6.9 mph11.1 kmh 25.25 in855.1 mb 0.00 in0.0 mm 0.00 in/hr0.0 mm/hr 0.00 in0.0 mm
11:40 PM 24.4°F-4.2°C 1.9°F-16.7°C 37% 5.0 mph WSW8.0 kmh WSW 9.6 mph15.4 kmh 25.25 in855.1 mb 0.00 in0.0 mm 0.00 in/hr0.0 mm/hr 0.00 in0.0 mm
11:45 PM 24.6°F-4.1°C 0.9°F-17.3°C 35% 6.0 mph WSW9.7 kmh WSW 9.6 mph15.4 kmh 25.25 in855.1 mb 0.00 in0.0 mm 0.00 in/hr0.0 mm/hr 0.00 in0.0 mm
11:50 PM 24.8°F-4.0°C 0.5°F-17.5°C 34% 7.0 mph WSW11.3 kmh WSW 11.6 mph18.7 kmh 25.25 in855.1 mb 0.00 in0.0 mm 0.00 in/hr0.0 mm/hr 0.00 in0.0 mm
11:55 PM 24.4°F-4.2°C -0.6°F-18.1°C 33% 8.0 mph WSW12.9 kmh WSW 10.5 mph16.9 kmh 25.25 in855.1 mb 0.00 in0.0 mm 0.00 in/hr0.0 mm/hr 0.00 in0.0 mm